createdAt,value
2022-09-07T00:00:52.388Z,101181.19
2022-09-07T00:06:14.473Z,101162.75
2022-09-07T00:11:36.202Z,101161.88
2022-09-07T00:16:57.869Z,101181.47
2022-09-07T00:22:19.591Z,101178.94
2022-09-07T00:27:41.515Z,101190.97
2022-09-07T00:33:03.223Z,101178.94
2022-09-07T00:38:25.387Z,101180.88
2022-09-07T00:43:53.410Z,101194.88
2022-09-07T00:49:19.397Z,101189.28
2022-09-07T00:54:46.223Z,101197.13
2022-09-07T01:00:09.188Z,101190.69
2022-09-07T01:05:40.962Z,101180.34
2022-09-07T01:11:02.972Z,101180.34
2022-09-07T01:16:55.412Z,101188.75
2022-09-07T01:22:25.860Z,101186.50
2022-09-07T01:28:14.739Z,101190.13
2022-09-07T01:33:59.517Z,101193.78
2022-09-07T01:39:27.453Z,101200.75
2022-09-07T01:45:02.374Z,101198.81
2022-09-07T01:50:28.525Z,101200.75
2022-09-07T01:55:55.934Z,101195.16
2022-09-07T02:01:30.024Z,101197.13
2022-09-07T02:07:01.207Z,101189.03
2022-09-07T02:12:31.323Z,101182.56
2022-09-07T02:17:59.645Z,101190.13
2022-09-07T02:23:26.182Z,101197.66
2022-09-07T02:28:48.443Z,101216.41
2022-09-07T02:34:10.539Z,101188.47
2022-09-07T02:39:32.658Z,101182.00
2022-09-07T02:44:54.478Z,101193.19
2022-09-07T02:50:39.239Z,101170.81
2022-09-07T02:56:22.580Z,101162.44
2022-09-07T03:02:10.416Z,101176.72
2022-09-07T03:07:43.493Z,101175.28
2022-09-07T03:13:06.391Z,101196.56
2022-09-07T03:18:28.529Z,101194.84
2022-09-07T03:23:51.929Z,101173.59
2022-09-07T03:29:13.724Z,101167.16
2022-09-07T03:34:36.420Z,101166.34
2022-09-07T03:39:58.282Z,101162.44
2022-09-07T03:45:20.116Z,101166.34
2022-09-07T03:50:41.927Z,101157.94
2022-09-07T03:56:10.088Z,101156.28
2022-09-07T04:01:31.979Z,101148.16
2022-09-07T04:06:53.797Z,101154.59
2022-09-07T04:12:15.520Z,101150.13
2022-09-07T04:17:37.284Z,101159.63
2022-09-07T04:22:59.031Z,101159.63
2022-09-07T04:28:21.539Z,101142.03
2022-09-07T04:33:44.531Z,101132.78
2022-09-07T04:39:06.371Z,101138.09
2022-09-07T04:44:28.097Z,101148.44
2022-09-07T04:49:53.122Z,101140.34
2022-09-07T04:55:14.939Z,101139.47
2022-09-07T05:00:37.899Z,101160.16
2022-09-07T05:06:07.345Z,101154.56
2022-09-07T05:11:30.123Z,101150.97
2022-09-07T05:16:52.059Z,101158.47
2022-09-07T05:22:13.795Z,101166.88
2022-09-07T05:27:35.472Z,101164.94
2022-09-07T05:32:57.179Z,101169.66
2022-09-07T05:38:18.902Z,101177.22
2022-09-07T05:49:23.644Z,101177.53
2022-09-07T05:54:45.680Z,101180.31
2022-09-07T06:00:07.843Z,101179.19
2022-09-07T06:05:29.646Z,101178.63
2022-09-07T06:10:51.309Z,101183.38
2022-09-07T06:16:14.537Z,101184.47
2022-09-07T06:21:38.325Z,101180.56
2022-09-07T06:27:00.008Z,101178.06
2022-09-07T06:38:03.948Z,101176.38
2022-09-07T06:43:25.686Z,101195.16
2022-09-07T06:48:47.578Z,101190.97
2022-09-07T06:59:51.699Z,101205.22
2022-09-07T07:05:13.377Z,101204.94
2022-09-07T07:10:39.314Z,101198.22
2022-09-07T07:16:10.039Z,101204.38
2022-09-07T07:21:48.540Z,101206.63
2022-09-07T07:27:13.883Z,101209.69
2022-09-07T07:32:37.734Z,101222.84
2022-09-07T07:43:41.441Z,101227.31
2022-09-07T07:49:03.098Z,101233.47
2022-09-07T07:54:24.820Z,101227.88
2022-09-07T07:59:46.478Z,101225.63
2022-09-07T08:05:08.431Z,101225.09
2022-09-07T08:10:30.246Z,101237.69
2022-09-07T08:15:52.341Z,101239.63
2022-09-07T08:21:15.877Z,101233.47
2022-09-07T08:26:37.542Z,101235.44
2022-09-07T08:31:59.183Z,101235.72
2022-09-07T08:37:20.871Z,101236.28
2022-09-07T08:43:01.363Z,101224.81
2022-09-07T08:48:31.314Z,101227.63
2022-09-07T08:53:53.299Z,101228.44
2022-09-07T08:59:23.008Z,101227.03
2022-09-07T09:10:29.439Z,101217.81
2022-09-07T09:16:04.344Z,101216.66
2022-09-07T09:21:27.261Z,101220.06
2022-09-07T09:26:56.710Z,101227.31
2022-09-07T09:32:39.998Z,101231.50
2022-09-07T09:38:03.809Z,101229.81
2022-09-07T09:43:31.574Z,101233.47
2022-09-07T09:49:05.609Z,101223.97
2022-09-07T09:54:37.319Z,101231.25
2022-09-07T10:00:07.011Z,101230.13
2022-09-07T10:05:35.749Z,101216.13
2022-09-07T10:11:10.115Z,101223.41
2022-09-07T10:16:42.994Z,101227.31
2022-09-07T10:22:22.287Z,101223.38
2022-09-07T10:27:46.929Z,101212.47
2022-09-07T10:33:21.846Z,101208.56
2022-09-07T10:38:53.894Z,101201.28
2022-09-07T10:44:28.779Z,101202.66
2022-09-07T10:55:48.118Z,101189.53
2022-09-07T11:01:28.324Z,101192.59
2022-09-07T11:06:55.366Z,101178.59
2022-09-07T11:12:26.048Z,101177.22
2022-09-07T11:17:57.487Z,101174.69
2022-09-07T11:23:28.750Z,101169.66
2022-09-07T11:34:57.594Z,101174.16
2022-09-07T11:40:39.747Z,101159.03
2022-09-07T11:46:08.047Z,101157.66
2022-09-07T11:51:40.676Z,101156.22
2022-09-07T11:57:21.659Z,101150.63
2022-09-07T12:03:04.328Z,101134.69
2022-09-07T12:08:34.777Z,101128.22
2022-09-07T12:14:08.529Z,101131.63
2022-09-07T12:19:30.346Z,101135.53
2022-09-07T12:24:53.880Z,101123.22
2022-09-07T12:30:15.468Z,101128.81
2022-09-07T12:35:40.919Z,101122.09
2022-09-07T12:41:05.116Z,101106.44
2022-09-07T12:46:34.864Z,101112.03
2022-09-07T12:52:27.644Z,101109.78
2022-09-07T12:58:30.177Z,101120.41
2022-09-07T13:04:00.766Z,101111.47
2022-09-07T13:09:31.212Z,101099.41
2022-09-07T13:14:56.328Z,101098.53
2022-09-07T13:20:23.716Z,101107.50
2022-09-07T13:25:48.607Z,101086.47
2022-09-07T13:31:47.517Z,101080.56
2022-09-07T13:37:45.977Z,101078.06
2022-09-07T13:43:16.825Z,101063.78
2022-09-07T13:48:50.493Z,101051.47
2022-09-07T13:54:37.282Z,101057.06
2022-09-07T13:59:59.559Z,101057.06
2022-09-07T14:05:22.565Z,101043.06
2022-09-07T14:10:48.899Z,101047.53
2022-09-07T14:16:11.038Z,101053.13
2022-09-07T14:21:32.864Z,101046.41
2022-09-07T14:26:55.052Z,101044.75
2022-09-07T14:32:25.186Z,101040.81
2022-09-07T14:37:48.372Z,101039.13
2022-09-07T14:43:33.695Z,101027.66
2022-09-07T14:48:58.128Z,101035.53
2022-09-07T14:54:34.335Z,101038.00
2022-09-07T14:59:57.402Z,101031.03
2022-09-07T15:05:29.428Z,101021.78
2022-09-07T15:16:45.062Z,101006.72
2022-09-07T15:22:13.410Z,101012.31
2022-09-07T15:27:35.402Z,101009.78
2022-09-07T15:32:57.685Z,100995.25
2022-09-07T15:44:02.441Z,100998.34
2022-09-07T15:49:24.162Z,101000.31
2022-09-07T15:54:45.865Z,101007.28
2022-09-07T16:00:08.357Z,101007.28
2022-09-07T16:05:31.385Z,101008.09
2022-09-07T16:10:54.316Z,101003.94
2022-09-07T16:16:17.258Z,101003.94
2022-09-07T16:21:41.139Z,100998.34
2022-09-07T16:27:03.325Z,100987.13
2022-09-07T16:43:49.613Z,100972.59
2022-09-07T16:49:12.148Z,100971.78
2022-09-07T16:54:33.815Z,100981.28
2022-09-07T16:59:55.554Z,100973.16
2022-09-07T17:05:17.248Z,100976.25
2022-09-07T17:10:38.932Z,100988.31
2022-09-07T17:16:30.808Z,100988.31
2022-09-07T17:21:53.882Z,100982.72
2022-09-07T17:27:15.555Z,100975.97
2022-09-07T17:32:37.542Z,100978.75
2022-09-07T17:38:00.946Z,100971.53
2022-09-07T17:43:44.815Z,100967.03
2022-09-07T17:49:08.168Z,100963.13
2022-09-07T17:54:29.916Z,100955.84
2022-09-07T18:05:33.637Z,100946.34
2022-09-07T18:16:37.205Z,100940.75
2022-09-07T18:21:59.539Z,100943.53
2022-09-07T18:27:21.587Z,100932.66
2022-09-07T18:32:45.077Z,100941.06
2022-09-07T18:38:07.158Z,100936.28
2022-09-07T18:43:30.974Z,100961.75
2022-09-07T18:48:54.262Z,100962.31
2022-09-07T18:54:15.936Z,100958.44
2022-09-07T18:59:37.608Z,100953.13
2022-09-07T19:10:40.886Z,100950.91
2022-09-07T19:16:09.949Z,100946.97
2022-09-07T19:21:37.532Z,100953.72
2022-09-07T19:27:00.639Z,100938.63
2022-09-07T19:32:22.819Z,100949.81
2022-09-07T19:37:44.478Z,100941.41
2022-09-07T19:43:06.667Z,100935.81
2022-09-07T19:48:32.063Z,100944.22
2022-09-07T19:53:53.947Z,100934.72
2022-09-07T19:59:16.165Z,100927.44
2022-09-07T20:04:38.134Z,100919.06
2022-09-07T20:09:59.987Z,100921.28
2022-09-07T20:15:21.618Z,100922.13
2022-09-07T20:20:43.428Z,100915.13
2022-09-07T20:26:10.937Z,100909.22
2022-09-07T20:31:32.703Z,100897.47
2022-09-07T20:36:54.951Z,100888.28
2022-09-07T20:42:16.623Z,100889.38
2022-09-07T20:47:38.500Z,100882.69
2022-09-07T20:53:00.130Z,100879.34
2022-09-07T20:58:21.774Z,100886.09
2022-09-07T21:03:49.979Z,100878.22
2022-09-07T21:09:11.722Z,100880.75
2022-09-07T21:14:33.403Z,100880.44
2022-09-07T21:19:55.031Z,100887.72
2022-09-07T21:25:16.732Z,100888.56
2022-09-07T21:30:38.413Z,100887.72
2022-09-07T21:36:08.001Z,100886.59
2022-09-07T21:41:30.566Z,100882.13
2022-09-07T21:46:52.303Z,100874.84
2022-09-07T21:52:14.114Z,100874.84
2022-09-07T21:57:35.830Z,100869.56
2022-09-07T22:02:57.833Z,100871.50
2022-09-07T22:08:19.902Z,100877.09
2022-09-07T22:13:41.928Z,100889.41
2022-09-07T22:19:04.772Z,100880.19
2022-09-07T22:24:26.596Z,100874.91
2022-09-07T22:29:48.235Z,100881.31
2022-09-07T22:35:10.351Z,100881.63
2022-09-07T22:40:32.068Z,100869.56
2022-09-07T22:45:53.718Z,100872.69
2022-09-07T22:51:15.514Z,100866.22
2022-09-07T22:56:37.448Z,100859.81
2022-09-07T23:01:59.362Z,100857.00
2022-09-07T23:07:22.029Z,100852.53
2022-09-07T23:12:43.760Z,100845.28
2022-09-07T23:18:05.444Z,100852.53
2022-09-07T23:23:28.012Z,100855.63
2022-09-07T23:29:00.482Z,100852.00
2022-09-07T23:34:22.138Z,100852.28
2022-09-07T23:39:44.607Z,100859.00
2022-09-07T23:45:08.285Z,100853.72
2022-09-07T23:50:29.985Z,100855.97
2022-09-07T23:55:53.348Z,100849.50
